createdAt,value
2022-12-04T00:00:03.812Z,0.83
2022-12-04T00:02:56.507Z,0.84
2022-12-04T00:05:28.281Z,0.85
2022-12-04T00:08:00.138Z,0.86
2022-12-04T00:10:31.971Z,0.87
2022-12-04T00:13:03.720Z,0.89
2022-12-04T00:15:35.944Z,0.85
2022-12-04T00:18:08.163Z,0.84
2022-12-04T00:20:42.873Z,0.83
2022-12-04T00:23:14.745Z,0.83
2022-12-04T00:25:48.796Z,0.83
2022-12-04T00:28:22.276Z,0.82
2022-12-04T00:30:54.045Z,0.83
2022-12-04T00:33:26.101Z,0.82
2022-12-04T00:36:02.301Z,0.79
2022-12-04T00:38:34.536Z,0.80
2022-12-04T00:41:08.973Z,0.79
2022-12-04T00:43:40.909Z,0.82
2022-12-04T00:46:12.791Z,0.83
2022-12-04T00:48:46.449Z,0.84
2022-12-04T00:51:20.991Z,0.82
2022-12-04T00:53:53.821Z,0.78
2022-12-04T00:56:28.693Z,0.72
2022-12-04T00:59:01.826Z,0.69
2022-12-04T01:01:33.616Z,0.68
2022-12-04T01:04:05.768Z,0.67
2022-12-04T01:06:39.116Z,0.65
2022-12-04T01:09:12.167Z,0.67
2022-12-04T01:11:43.878Z,0.71
2022-12-04T01:14:15.637Z,0.73
2022-12-04T01:16:48.084Z,0.76
2022-12-04T01:19:19.956Z,0.78
2022-12-04T01:21:51.721Z,0.80
2022-12-04T01:24:23.477Z,0.82
2022-12-04T01:26:55.244Z,0.83
2022-12-04T01:29:26.994Z,0.84
2022-12-04T01:31:58.873Z,0.84
2022-12-04T01:34:30.716Z,0.86
2022-12-04T01:37:02.485Z,0.86
2022-12-04T01:39:36.628Z,0.86
2022-12-04T01:42:11.084Z,0.87
2022-12-04T01:44:45.435Z,0.89
2022-12-04T01:47:17.146Z,0.87
2022-12-04T01:49:50.570Z,0.86
2022-12-04T01:52:25.605Z,0.87
2022-12-04T01:55:01.540Z,0.85
2022-12-04T01:57:35.866Z,0.85
2022-12-04T02:00:13.576Z,0.83
2022-12-04T02:02:49.442Z,0.84
2022-12-04T02:05:24.097Z,0.84
2022-12-04T02:08:01.265Z,0.84
2022-12-04T02:10:43.614Z,0.86
2022-12-04T02:13:23.292Z,0.87
2022-12-04T02:16:02.637Z,0.87
2022-12-04T02:18:42.182Z,0.85
2022-12-04T02:21:21.663Z,0.79
2022-12-04T02:24:33.882Z,0.73
2022-12-04T02:27:17.221Z,0.72
2022-12-04T02:29:58.522Z,0.71
2022-12-04T02:32:39.789Z,0.73
2022-12-04T02:35:17.564Z,0.73
2022-12-04T02:37:54.811Z,0.73
2022-12-04T02:40:31.085Z,0.73
2022-12-04T02:43:09.400Z,0.74
2022-12-04T02:45:44.054Z,0.76
2022-12-04T02:48:20.733Z,0.78
2022-12-04T02:50:58.417Z,0.78
2022-12-04T02:53:34.634Z,0.80
2022-12-04T02:56:11.355Z,0.82
2022-12-04T02:58:48.236Z,0.82
2022-12-04T03:01:25.447Z,0.84
2022-12-04T03:04:01.910Z,0.83
2022-12-04T03:06:37.165Z,0.83
2022-12-04T03:09:14.625Z,0.82
2022-12-04T03:11:53.186Z,0.82
2022-12-04T03:14:29.032Z,0.81
2022-12-04T03:17:08.268Z,0.81
2022-12-04T03:19:46.995Z,0.80
2022-12-04T03:22:22.196Z,0.80
2022-12-04T03:24:56.438Z,0.80
2022-12-04T03:27:35.499Z,0.80
2022-12-04T03:30:11.198Z,0.79
2022-12-04T03:32:49.648Z,0.78
2022-12-04T03:35:22.688Z,0.78
2022-12-04T03:38:04.393Z,0.79
2022-12-04T03:40:39.794Z,0.79
2022-12-04T03:43:25.848Z,0.79
2022-12-04T03:46:06.834Z,0.79
2022-12-04T03:48:43.769Z,0.76
2022-12-04T03:51:20.658Z,0.74
2022-12-04T03:53:56.444Z,0.74
2022-12-04T03:56:35.297Z,0.72
2022-12-04T03:59:11.011Z,0.72
2022-12-04T04:01:47.655Z,0.73
2022-12-04T04:04:23.695Z,0.74
2022-12-04T04:07:00.410Z,0.75
2022-12-04T04:09:36.920Z,0.76
2022-12-04T04:12:13.035Z,0.79
2022-12-04T04:15:09.607Z,0.81
2022-12-04T04:18:02.800Z,0.84
2022-12-04T04:20:56.111Z,0.87
2022-12-04T04:23:49.836Z,0.87
2022-12-04T04:26:23.592Z,0.83
2022-12-04T04:28:55.321Z,0.79
2022-12-04T04:31:33.060Z,0.74
2022-12-04T04:34:13.044Z,0.72
2022-12-04T04:36:54.486Z,0.72
2022-12-04T04:39:35.942Z,0.75
2022-12-04T04:42:14.396Z,0.77
2022-12-04T04:44:52.473Z,0.79
2022-12-04T04:47:38.673Z,0.82
2022-12-04T04:50:13.338Z,0.85
2022-12-04T04:52:48.518Z,0.87
2022-12-04T04:55:21.228Z,0.88
2022-12-04T04:57:52.978Z,0.90
2022-12-04T05:00:25.709Z,0.90
2022-12-04T05:02:57.554Z,0.88
2022-12-04T05:05:29.402Z,0.85
2022-12-04T05:08:01.361Z,0.81
2022-12-04T05:10:33.252Z,0.78
2022-12-04T05:13:04.968Z,0.74
2022-12-04T05:15:36.901Z,0.73
2022-12-04T05:18:09.194Z,0.75
2022-12-04T05:20:42.333Z,0.76
2022-12-04T05:23:14.057Z,0.78
2022-12-04T05:25:45.964Z,0.77
2022-12-04T05:28:17.930Z,0.77
2022-12-04T05:30:57.871Z,0.77
2022-12-04T05:33:29.789Z,0.78
2022-12-04T05:36:04.104Z,0.78
2022-12-04T05:38:36.761Z,0.77
2022-12-04T05:41:09.352Z,0.78
2022-12-04T05:43:41.115Z,0.77
2022-12-04T05:46:13.337Z,0.77
2022-12-04T05:48:45.084Z,0.80
2022-12-04T05:51:17.453Z,0.82
2022-12-04T05:53:52.436Z,0.83
2022-12-04T05:56:24.511Z,0.83
2022-12-04T05:58:56.265Z,0.83
2022-12-04T06:01:28.012Z,0.77
2022-12-04T06:04:00.571Z,0.74
2022-12-04T06:06:32.593Z,0.73
2022-12-04T06:09:05.125Z,0.75
2022-12-04T06:11:38.701Z,0.77
2022-12-04T06:14:12.829Z,0.80
2022-12-04T06:16:47.432Z,0.83
2022-12-04T06:19:21.656Z,0.85
2022-12-04T06:21:54.725Z,0.86
2022-12-04T06:24:27.234Z,0.88
2022-12-04T06:29:52.422Z,0.88
2022-12-04T06:32:24.162Z,0.86
2022-12-04T06:34:56.594Z,0.84
2022-12-04T06:37:28.405Z,0.80
2022-12-04T06:40:01.342Z,0.75
2022-12-04T06:42:33.092Z,0.75
2022-12-04T06:45:05.403Z,0.75
2022-12-04T06:47:38.125Z,0.77
2022-12-04T06:50:11.512Z,0.80
2022-12-04T06:52:43.375Z,0.83
2022-12-04T06:55:15.132Z,0.84
2022-12-04T06:57:47.078Z,0.86
2022-12-04T07:00:19.971Z,0.87
2022-12-04T07:02:51.785Z,0.89
2022-12-04T07:05:24.238Z,0.90
2022-12-04T07:07:56.112Z,0.90
2022-12-04T07:10:27.946Z,0.88
2022-12-04T07:12:59.714Z,0.86
2022-12-04T07:15:31.560Z,0.83
2022-12-04T07:18:03.590Z,0.79
2022-12-04T07:20:36.265Z,0.80
2022-12-04T07:23:08.047Z,0.81
2022-12-04T07:25:43.086Z,0.84
2022-12-04T07:28:15.049Z,0.90
2022-12-04T07:30:47.900Z,0.97
2022-12-04T07:33:19.656Z,1.02
2022-12-04T07:35:59.043Z,1.04
2022-12-04T07:38:31.550Z,1.06
2022-12-04T07:41:04.846Z,1.08
2022-12-04T07:43:37.025Z,1.08
2022-12-04T07:46:11.602Z,1.08
2022-12-04T07:48:43.762Z,1.06
2022-12-04T07:51:17.582Z,1.09
2022-12-04T07:53:51.491Z,1.13
2022-12-04T07:56:23.857Z,1.18
2022-12-04T07:58:55.638Z,1.24
2022-12-04T08:01:27.685Z,1.30
2022-12-04T08:04:01.587Z,1.35
2022-12-04T08:06:36.020Z,1.41
2022-12-04T08:09:10.230Z,1.43
2022-12-04T08:11:42.583Z,1.44
2022-12-04T08:14:14.989Z,1.45
2022-12-04T08:16:52.317Z,1.49
2022-12-04T08:19:25.512Z,1.53
2022-12-04T08:21:57.874Z,1.56
2022-12-04T08:24:29.655Z,1.61
2022-12-04T08:27:01.436Z,1.70
2022-12-04T08:29:33.218Z,1.78
2022-12-04T08:32:05.721Z,1.86
2022-12-04T08:34:37.559Z,1.90
2022-12-04T08:37:09.451Z,1.89
2022-12-04T08:39:41.644Z,1.83
2022-12-04T08:42:13.966Z,1.75
2022-12-04T08:44:45.759Z,1.71
2022-12-04T08:47:17.677Z,1.70
2022-12-04T08:49:50.240Z,1.70
2022-12-04T08:52:22.136Z,1.77
2022-12-04T08:54:53.981Z,1.84
2022-12-04T08:57:25.886Z,1.89
2022-12-04T08:59:58.150Z,1.96
2022-12-04T09:02:30.784Z,2.02
2022-12-04T09:05:03.017Z,2.01
2022-12-04T09:07:34.951Z,1.97
2022-12-04T09:10:09.573Z,1.91
2022-12-04T09:12:41.632Z,1.87
2022-12-04T09:15:14.412Z,1.83
2022-12-04T09:17:46.292Z,1.80
2022-12-04T09:20:18.244Z,1.77
2022-12-04T09:23:03.247Z,1.77
2022-12-04T09:25:38.397Z,1.75
2022-12-04T09:28:10.394Z,1.73
2022-12-04T09:30:42.220Z,1.70
2022-12-04T09:33:14.625Z,1.66
2022-12-04T09:35:46.536Z,1.62
2022-12-04T09:38:18.279Z,1.61
2022-12-04T09:41:00.573Z,1.61
2022-12-04T09:43:36.488Z,1.63
2022-12-04T09:46:16.791Z,1.65
2022-12-04T09:48:49.922Z,1.72
2022-12-04T09:51:25.081Z,1.79
2022-12-04T09:54:00.975Z,1.82
2022-12-04T09:56:33.994Z,1.83
2022-12-04T09:59:12.690Z,1.84
2022-12-04T10:01:48.556Z,1.77
2022-12-04T10:04:20.740Z,1.74
2022-12-04T10:07:06.024Z,1.69
2022-12-04T10:09:45.789Z,1.69
2022-12-04T10:12:28.250Z,1.71
2022-12-04T10:15:12.197Z,1.73
2022-12-04T10:18:03.709Z,1.77
2022-12-04T10:20:52.047Z,1.80
2022-12-04T10:23:30.846Z,1.85
2022-12-04T10:26:05.678Z,1.87
2022-12-04T10:28:42.787Z,1.90
2022-12-04T10:31:17.294Z,1.97
2022-12-04T10:33:54.569Z,2.04
2022-12-04T10:36:31.678Z,2.08
2022-12-04T10:39:08.467Z,2.08
2022-12-04T10:41:46.156Z,2.09
2022-12-04T10:44:20.711Z,2.11
2022-12-04T10:46:54.884Z,2.13
2022-12-04T10:49:29.589Z,2.17
2022-12-04T10:52:01.569Z,2.18
2022-12-04T10:54:39.885Z,2.21
2022-12-04T10:57:14.137Z,2.22
2022-12-04T10:59:54.032Z,2.23
2022-12-04T11:02:28.798Z,2.24
2022-12-04T11:05:03.593Z,2.23
2022-12-04T11:07:44.667Z,2.20
2022-12-04T11:10:26.102Z,2.19
2022-12-04T11:12:59.201Z,2.15
2022-12-04T11:15:32.126Z,2.14
2022-12-04T11:18:16.666Z,2.16
2022-12-04T11:20:53.376Z,2.18
2022-12-04T11:23:26.962Z,2.22
2022-12-04T11:26:05.482Z,2.23
2022-12-04T11:28:42.491Z,2.25
2022-12-04T11:31:22.847Z,2.24
2022-12-04T11:33:57.263Z,2.16
2022-12-04T11:36:32.236Z,2.07
2022-12-04T11:39:17.518Z,2.08
2022-12-04T11:41:59.841Z,2.10
2022-12-04T11:44:34.301Z,2.13
2022-12-04T11:47:17.160Z,2.16
2022-12-04T11:50:03.606Z,2.18
2022-12-04T11:52:59.264Z,2.19
2022-12-04T11:55:39.059Z,2.17
2022-12-04T11:58:28.832Z,2.13
2022-12-04T12:01:14.791Z,2.06
2022-12-04T12:04:06.052Z,2.06
2022-12-04T12:06:40.981Z,2.04
2022-12-04T12:09:24.371Z,1.98
2022-12-04T12:12:02.529Z,1.95
2022-12-04T12:14:43.112Z,1.94
2022-12-04T12:17:26.914Z,1.95
2022-12-04T12:20:11.857Z,1.94
2022-12-04T12:23:00.288Z,1.94
2022-12-04T12:25:39.421Z,1.98
2022-12-04T12:28:23.388Z,2.05
2022-12-04T12:31:10.030Z,2.13
2022-12-04T12:33:47.691Z,2.22
2022-12-04T12:36:22.223Z,2.27
2022-12-04T12:38:59.553Z,2.28
2022-12-04T12:41:36.929Z,2.28
2022-12-04T12:44:17.995Z,2.25
2022-12-04T12:46:53.500Z,2.22
2022-12-04T12:49:30.917Z,2.16
2022-12-04T12:52:06.447Z,2.12
2022-12-04T12:54:45.366Z,2.09
2022-12-04T12:57:23.245Z,2.10
2022-12-04T12:59:58.603Z,2.09
2022-12-04T13:02:34.911Z,2.04
2022-12-04T13:05:12.309Z,1.99
2022-12-04T13:07:53.229Z,1.92
2022-12-04T13:10:30.246Z,1.84
2022-12-04T13:13:04.182Z,1.72
2022-12-04T13:15:40.777Z,1.65
2022-12-04T13:18:24.790Z,1.63
2022-12-04T13:21:00.388Z,1.64
2022-12-04T13:23:47.957Z,1.65
2022-12-04T13:26:34.409Z,1.66
2022-12-04T13:29:17.052Z,1.69
2022-12-04T13:31:58.347Z,1.71
2022-12-04T13:34:54.534Z,1.69
2022-12-04T13:37:44.630Z,1.65
2022-12-04T13:40:38.935Z,1.59
2022-12-04T13:43:36.761Z,1.54
2022-12-04T13:46:24.077Z,1.51
2022-12-04T13:48:56.804Z,1.47
2022-12-04T13:51:38.380Z,1.47
2022-12-04T13:54:29.824Z,1.47
2022-12-04T13:57:21.050Z,1.46
2022-12-04T14:00:06.464Z,1.46
2022-12-04T14:02:50.867Z,1.43
2022-12-04T14:05:30.351Z,1.40
2022-12-04T14:08:11.586Z,1.33
2022-12-04T14:10:43.836Z,1.23
2022-12-04T14:13:23.245Z,1.15
2022-12-04T14:16:07.186Z,1.12
2022-12-04T14:18:39.222Z,1.11
2022-12-04T14:21:14.226Z,1.12
2022-12-04T14:23:46.761Z,1.16
2022-12-04T14:26:48.878Z,1.17
2022-12-04T14:29:45.474Z,1.21
2022-12-04T14:32:23.441Z,1.22
2022-12-04T14:34:56.186Z,1.19
2022-12-04T14:37:32.738Z,1.14
2022-12-04T14:40:09.631Z,1.09
2022-12-04T14:42:42.750Z,1.04
2022-12-04T14:45:25.857Z,1.00
2022-12-04T14:48:22.467Z,0.97
2022-12-04T14:51:04.814Z,0.95
2022-12-04T14:53:44.991Z,0.94
2022-12-04T14:56:33.769Z,0.95
2022-12-04T14:59:17.026Z,0.95
2022-12-04T15:01:52.021Z,0.93
2022-12-04T15:04:27.559Z,0.93
2022-12-04T15:07:00.735Z,0.94
2022-12-04T15:09:51.118Z,0.92
2022-12-04T15:12:37.317Z,0.86
2022-12-04T15:15:19.362Z,0.79
2022-12-04T15:18:02.630Z,0.74
2022-12-04T15:20:39.462Z,0.71
2022-12-04T15:23:16.993Z,0.72
2022-12-04T15:25:52.131Z,0.74
2022-12-04T15:28:27.305Z,0.78
2022-12-04T15:31:03.307Z,0.78
2022-12-04T15:33:39.403Z,0.79
2022-12-04T15:36:17.632Z,0.81
2022-12-04T15:38:52.483Z,0.82
2022-12-04T15:41:32.944Z,0.84
2022-12-04T15:44:18.872Z,0.87
2022-12-04T15:46:55.442Z,0.86
2022-12-04T15:49:30.012Z,0.83
2022-12-04T15:52:15.986Z,0.78
2022-12-04T15:54:53.738Z,0.72
2022-12-04T15:57:29.443Z,0.72
2022-12-04T16:00:05.301Z,0.75
2022-12-04T16:02:41.894Z,0.75
2022-12-04T16:05:32.193Z,0.73
2022-12-04T16:08:23.018Z,0.72
2022-12-04T16:11:03.884Z,0.71
2022-12-04T16:13:39.419Z,0.72
2022-12-04T16:16:15.814Z,0.72
2022-12-04T16:18:48.514Z,0.73
2022-12-04T16:21:23.392Z,0.73
2022-12-04T16:23:55.158Z,0.73
2022-12-04T16:26:27.375Z,0.73
2022-12-04T16:28:59.344Z,0.73
2022-12-04T16:31:31.414Z,0.71
2022-12-04T16:34:03.536Z,0.69
2022-12-04T16:36:35.534Z,0.66
2022-12-04T16:39:07.606Z,0.64
2022-12-04T16:41:39.577Z,0.63
2022-12-04T16:44:16.960Z,0.61
2022-12-04T16:46:51.925Z,0.58
2022-12-04T16:49:23.839Z,0.58
2022-12-04T16:51:55.850Z,0.58
2022-12-04T16:54:27.631Z,0.58
2022-12-04T16:56:59.864Z,0.58
2022-12-04T16:59:32.694Z,0.57
2022-12-04T17:02:05.785Z,0.56
2022-12-04T17:04:38.031Z,0.56
2022-12-04T17:07:10.195Z,0.57
2022-12-04T17:09:42.019Z,0.60
2022-12-04T17:12:13.950Z,0.64
2022-12-04T17:14:46.095Z,0.63
2022-12-04T17:17:17.871Z,0.62
2022-12-04T17:19:50.002Z,0.58
2022-12-04T17:22:26.286Z,0.55
2022-12-04T17:24:59.053Z,0.55
2022-12-04T17:27:31.317Z,0.57
2022-12-04T17:30:03.306Z,0.62
2022-12-04T17:32:35.961Z,0.65
2022-12-04T17:35:09.386Z,0.67
2022-12-04T17:37:41.652Z,0.67
2022-12-04T17:40:15.807Z,0.69
2022-12-04T17:42:47.640Z,0.71
2022-12-04T17:45:19.510Z,0.72
2022-12-04T17:47:51.467Z,0.71
2022-12-04T17:50:23.252Z,0.66
2022-12-04T17:52:55.215Z,0.62
2022-12-04T17:55:27.280Z,0.63
2022-12-04T17:57:59.010Z,0.63
2022-12-04T18:00:31.012Z,0.65
2022-12-04T18:03:02.892Z,0.66
2022-12-04T18:05:35.546Z,0.66
2022-12-04T18:08:07.766Z,0.67
2022-12-04T18:10:39.860Z,0.66
2022-12-04T18:13:11.920Z,0.66
2022-12-04T18:15:44.008Z,0.65
2022-12-04T18:18:16.389Z,0.63
2022-12-04T18:20:48.349Z,0.61
2022-12-04T18:23:20.133Z,0.61
2022-12-04T18:25:58.996Z,0.59
2022-12-04T18:28:32.657Z,0.57
2022-12-04T18:31:07.021Z,0.56
2022-12-04T18:33:41.119Z,0.57
2022-12-04T18:36:16.551Z,0.56
2022-12-04T18:38:53.777Z,0.57
2022-12-04T18:41:27.195Z,0.57
2022-12-04T18:44:00.084Z,0.56
2022-12-04T18:46:33.081Z,0.52
2022-12-04T18:49:05.295Z,0.51
2022-12-04T18:51:39.763Z,0.51
2022-12-04T18:54:14.801Z,0.52
2022-12-04T18:56:48.032Z,0.54
2022-12-04T18:59:21.414Z,0.56
2022-12-04T19:01:54.158Z,0.58
2022-12-04T19:04:27.086Z,0.62
2022-12-04T19:06:59.166Z,0.64
2022-12-04T19:10:08.949Z,0.65
2022-12-04T19:12:23.574Z,0.65
2022-12-04T19:14:55.507Z,0.65
2022-12-04T19:17:27.382Z,0.65
2022-12-04T19:20:02.373Z,0.64
2022-12-04T19:22:35.607Z,0.61
2022-12-04T19:25:12.224Z,0.58
2022-12-04T19:27:44.184Z,0.57
2022-12-04T19:30:18.405Z,0.56
2022-12-04T19:32:51.442Z,0.58
2022-12-04T19:35:23.406Z,0.62
2022-12-04T19:37:56.198Z,0.67
2022-12-04T19:40:29.223Z,0.71
2022-12-04T19:43:02.946Z,0.73
2022-12-04T19:45:35.562Z,0.72
2022-12-04T19:48:08.555Z,0.67
2022-12-04T19:50:41.561Z,0.61
2022-12-04T19:53:13.487Z,0.58
2022-12-04T19:55:47.341Z,0.56
2022-12-04T19:58:19.626Z,0.56
2022-12-04T20:00:56.631Z,0.57
2022-12-04T20:03:29.438Z,0.61
2022-12-04T20:06:05.807Z,0.62
2022-12-04T20:08:39.124Z,0.62
2022-12-04T20:11:15.985Z,0.64
2022-12-04T20:13:57.097Z,0.60
2022-12-04T20:16:31.330Z,0.55
2022-12-04T20:19:05.464Z,0.53
2022-12-04T20:21:38.022Z,0.50
2022-12-04T20:24:12.822Z,0.50
2022-12-04T20:26:46.538Z,0.53
2022-12-04T20:29:21.479Z,0.56
2022-12-04T20:31:53.796Z,0.61
2022-12-04T20:34:26.370Z,0.66
2022-12-04T20:36:59.087Z,0.66
2022-12-04T20:39:32.030Z,0.65
2022-12-04T20:42:05.118Z,0.64
2022-12-04T20:44:37.205Z,0.61
2022-12-04T20:47:09.185Z,0.56
2022-12-04T20:49:41.621Z,0.53
2022-12-04T20:52:15.973Z,0.51
2022-12-04T20:54:47.801Z,0.50
2022-12-04T20:57:19.693Z,0.51
2022-12-04T20:59:51.592Z,0.51
2022-12-04T21:02:23.451Z,0.50
2022-12-04T21:04:55.661Z,0.50
2022-12-04T21:07:27.544Z,0.51
2022-12-04T21:10:00.492Z,0.48
2022-12-04T21:12:49.958Z,0.43
2022-12-04T21:15:39.565Z,0.39
2022-12-04T21:18:11.371Z,0.39
2022-12-04T21:20:43.241Z,0.40
2022-12-04T21:23:15.055Z,0.43
2022-12-04T21:25:47.203Z,0.44
2022-12-04T21:28:19.084Z,0.45
2022-12-04T21:30:50.901Z,0.48
2022-12-04T21:33:22.683Z,0.50
2022-12-04T21:35:54.447Z,0.52
2022-12-04T21:38:26.214Z,0.50
2022-12-04T21:40:58.055Z,0.47
2022-12-04T21:43:31.653Z,0.43
2022-12-04T21:46:09.351Z,0.38
2022-12-04T21:48:41.975Z,0.37
2022-12-04T21:51:39.968Z,0.37
2022-12-04T21:54:06.484Z,0.39
2022-12-04T21:56:38.531Z,0.41
2022-12-04T21:59:10.374Z,0.43
2022-12-04T22:01:42.705Z,0.44
2022-12-04T22:04:14.486Z,0.43
2022-12-04T22:06:46.328Z,0.42
2022-12-04T22:09:18.566Z,0.39
2022-12-04T22:11:50.359Z,0.35
2022-12-04T22:14:22.237Z,0.33
2022-12-04T22:16:55.294Z,0.32
2022-12-04T22:19:27.157Z,0.35
2022-12-04T22:21:58.943Z,0.37
2022-12-04T22:24:30.840Z,0.42
2022-12-04T22:27:02.576Z,0.47
2022-12-04T22:29:49.759Z,0.51
2022-12-04T22:32:21.255Z,0.53
2022-12-04T22:34:52.988Z,0.52
2022-12-04T22:37:25.818Z,0.49
2022-12-04T22:39:58.358Z,0.47
2022-12-04T22:42:30.539Z,0.45
2022-12-04T22:45:02.289Z,0.44
2022-12-04T22:47:34.144Z,0.46
2022-12-04T22:50:06.714Z,0.48
2022-12-04T22:52:38.645Z,0.51
2022-12-04T22:55:10.899Z,0.54
2022-12-04T22:57:42.728Z,0.56
2022-12-04T23:00:15.689Z,0.55
2022-12-04T23:02:47.482Z,0.51
2022-12-04T23:05:19.395Z,0.46
2022-12-04T23:07:51.723Z,0.41
2022-12-04T23:10:23.480Z,0.41
2022-12-04T23:12:55.230Z,0.42
2022-12-04T23:15:27.025Z,0.45
2022-12-04T23:17:58.782Z,0.47
2022-12-04T23:20:30.553Z,0.48
2022-12-04T23:23:02.351Z,0.50
2022-12-04T23:25:39.022Z,0.53
2022-12-04T23:28:10.911Z,0.52
2022-12-04T23:30:47.686Z,0.49
2022-12-04T23:33:19.644Z,0.46
2022-12-04T23:35:55.104Z,0.43
2022-12-04T23:38:28.725Z,0.43
2022-12-04T23:41:05.237Z,0.43
2022-12-04T23:43:37.710Z,0.46
2022-12-04T23:46:11.700Z,0.48
2022-12-04T23:48:45.697Z,0.47
2022-12-04T23:51:19.385Z,0.48
2022-12-04T23:53:52.053Z,0.47
2022-12-04T23:56:25.843Z,0.46
2022-12-04T23:58:58.918Z,0.45
